Time;durP1;ratioP1;P1;durP2;ratioP2;P2;SDS_P1;SDS_P2;PMS_P1;PMS_P2;Temp;Humidity;BMP_temperature;BMP_pressure;BME280_temperature;BME280_humidity;BME280_pressure;Samples;Min_cycle;Max_cycle;Signal;HPM_P1;HPM_P2
2022/04/21 00:00:40;;;;;;;4.20;1.92;;;8.70;86.60;;;;;;621352;231;26576;-72
2022/04/21 00:03:07;;;;;;;1.65;1.55;;;8.70;87.30;;;;;;621417;231;26562;-70
2022/04/21 00:05:35;;;;;;;2.75;1.80;;;8.60;87.00;;;;;;621419;231;26527;-71
2022/04/21 00:08:03;;;;;;;2.15;1.75;;;8.70;87.10;;;;;;621382;231;26555;-71
2022/04/21 00:10:30;;;;;;;2.95;1.98;;;8.70;86.80;;;;;;621439;231;26560;-71
2022/04/21 00:12:57;;;;;;;1.70;1.60;;;8.70;87.00;;;;;;621412;231;26802;-71
2022/04/21 00:15:25;;;;;;;3.80;2.05;;;8.60;87.00;;;;;;621383;231;26534;-71
2022/04/21 00:17:52;;;;;;;3.33;1.90;;;8.60;87.40;;;;;;621157;231;26586;-71
2022/04/21 00:20:20;;;;;;;3.78;1.83;;;8.60;87.60;;;;;;621184;231;26570;-71
2022/04/21 00:25:21;;;;;;;2.15;1.55;;;8.60;87.90;;;;;;621128;231;26578;-70
2022/04/21 00:27:49;;;;;;;3.12;1.90;;;8.60;88.80;;;;;;621086;231;26651;-71
2022/04/21 00:30:17;;;;;;;3.50;1.98;;;8.60;88.20;;;;;;621139;227;26622;-70
2022/04/21 00:32:44;;;;;;;2.28;1.92;;;8.50;88.10;;;;;;620970;231;26954;-70
2022/04/21 00:35:12;;;;;;;2.53;1.80;;;8.40;88.70;;;;;;621106;231;26614;-70
2022/04/21 00:37:50;;;;;;;2.22;1.73;;;8.50;88.90;;;;;;621106;231;26630;-70
2022/04/21 00:40:18;;;;;;;3.25;2.12;;;8.40;89.10;;;;;;621123;231;26571;-70
2022/04/21 00:42:45;;;;;;;3.97;1.87;;;8.40;89.10;;;;;;621054;231;26662;-71
2022/04/21 00:45:12;;;;;;;2.72;1.95;;;8.40;89.40;;;;;;621081;231;26562;-70
2022/04/21 00:47:42;;;;;;;2.45;1.95;;;8.40;89.40;;;;;;621115;231;26866;-71
2022/04/21 00:50:08;;;;;;;2.58;1.60;;;8.30;89.90;;;;;;621248;230;26605;-64
2022/04/21 00:52:35;;;;;;;2.20;1.60;;;8.30;90.10;;;;;;622191;229;26588;-64
2022/04/21 00:55:02;;;;;;;2.12;1.90;;;8.20;90.20;;;;;;622888;230;26830;-63
2022/04/21 00:57:30;;;;;;;2.87;1.80;;;8.20;90.40;;;;;;622540;227;26816;-63
2022/04/21 00:59:57;;;;;;;1.83;1.70;;;8.10;90.60;;;;;;622422;230;26579;-63
2022/04/21 01:04:58;;;;;;;2.70;1.62;;;8.10;90.90;;;;;;622130;230;26569;-64
2022/04/21 01:07:26;;;;;;;4.00;1.87;;;8.00;91.00;;;;;;622080;230;26603;-64
2022/04/21 01:09:53;;;;;;;2.53;1.85;;;8.00;91.00;;;;;;622112;230;26802;-63
2022/04/21 01:12:21;;;;;;;2.53;1.60;;;8.00;91.10;;;;;;621718;231;26533;-63
2022/04/21 01:14:48;;;;;;;1.77;1.62;;;7.90;91.20;;;;;;621761;231;26531;-63
2022/04/21 01:17:16;;;;;;;1.60;1.50;;;8.00;91.30;;;;;;621813;231;26557;-63
2022/04/21 01:19:43;;;;;;;1.70;1.52;;;8.00;91.30;;;;;;621808;231;26531;-63
2022/04/21 01:22:10;;;;;;;2.47;1.77;;;8.00;91.40;;;;;;621833;231;26533;-63
2022/04/21 01:24:37;;;;;;;2.25;1.35;;;8.00;91.60;;;;;;621776;231;26777;-64
2022/04/21 01:27:05;;;;;;;2.70;1.77;;;8.00;91.70;;;;;;621788;231;26558;-63
2022/04/21 01:29:32;;;;;;;1.75;1.65;;;8.00;91.70;;;;;;621555;231;26554;-64
2022/04/21 01:32:01;;;;;;;2.42;1.50;;;8.00;91.80;;;;;;621478;231;26583;-63
2022/04/21 01:34:28;;;;;;;1.37;1.27;;;8.00;91.80;;;;;;621422;231;26875;-63
2022/04/21 01:42:02;;;;;;;1.90;1.80;;;7.90;92.10;;;;;;621186;231;26611;-63
2022/04/21 01:44:29;;;;;;;3.10;1.62;;;7.90;92.10;;;;;;621118;231;26582;-63
2022/04/21 01:46:56;;;;;;;2.78;1.80;;;8.00;92.30;;;;;;621151;231;26625;-64
2022/04/21 01:49:23;;;;;;;3.30;1.98;;;7.80;92.20;;;;;;621124;231;27287;-63
2022/04/21 01:51:50;;;;;;;2.25;1.70;;;7.80;92.40;;;;;;621114;231;26599;-63
2022/04/21 01:54:18;;;;;;;1.70;1.48;;;7.90;92.40;;;;;;621081;231;26634;-63
2022/04/21 01:56:46;;;;;;;2.00;1.60;;;7.90;92.40;;;;;;621102;231;26611;-63
2022/04/21 01:59:13;;;;;;;1.60;1.50;;;7.90;92.80;;;;;;621061;231;26542;-63
2022/04/21 02:01:41;;;;;;;3.97;1.50;;;7.90;92.60;;;;;;621062;231;26828;-63
2022/04/21 02:04:08;;;;;;;1.75;1.65;;;8.00;92.60;;;;;;621765;229;26635;-64
2022/04/21 02:06:35;;;;;;;2.35;1.20;;;8.00;93.10;;;;;;622505;230;26827;-64
2022/04/21 02:09:02;;;;;;;2.30;1.50;;;7.90;93.30;;;;;;622173;231;26561;-64
2022/04/21 02:11:29;;;;;;;1.33;1.20;;;7.90;92.90;;;;;;622046;231;26553;-64
2022/04/21 02:13:57;;;;;;;3.30;1.40;;;7.90;93.30;;;;;;621899;230;26612;-64
2022/04/21 02:16:25;;;;;;;2.60;1.48;;;7.90;93.30;;;;;;621804;230;26639;-64
2022/04/21 02:18:52;;;;;;;2.72;1.77;;;7.90;93.20;;;;;;621825;231;26577;-64
2022/04/21 02:21:19;;;;;;;1.67;1.55;;;8.00;93.20;;;;;;621818;231;26828;-64
2022/04/21 02:23:46;;;;;;;1.90;1.50;;;8.00;93.10;;;;;;621514;231;26559;-65
2022/04/21 02:26:14;;;;;;;1.70;1.60;;;8.00;93.00;;;;;;621381;231;26559;-65
2022/04/21 02:28:42;;;;;;;2.35;1.50;;;8.00;93.10;;;;;;621437;231;26559;-63
2022/04/21 02:31:09;;;;;;;1.70;1.60;;;7.90;93.00;;;;;;621381;231;26568;-63
2022/04/21 02:33:36;;;;;;;1.77;1.67;;;7.90;93.20;;;;;;621447;231;26564;-63
2022/04/21 02:36:03;;;;;;;1.50;1.40;;;7.90;93.20;;;;;;621400;231;26800;-63
2022/04/21 02:38:30;;;;;;;2.35;1.58;;;8.00;93.30;;;;;;621429;231;26514;-64
2022/04/21 02:40:58;;;;;;;1.87;1.70;;;7.90;93.20;;;;;;621157;231;27255;-64
2022/04/21 02:43:26;;;;;;;1.60;1.50;;;7.90;93.40;;;;;;621111;231;26708;-64
2022/04/21 02:45:54;;;;;;;1.85;1.75;;;7.70;93.50;;;;;;621099;231;26675;-64
2022/04/21 02:48:21;;;;;;;1.45;1.30;;;7.70;93.50;;;;;;621066;231;26637;-63
2022/04/21 02:50:49;;;;;;;1.52;1.40;;;7.70;93.60;;;;;;621127;231;26629;-63
2022/04/21 02:53:16;;;;;;;1.60;1.50;;;7.80;93.60;;;;;;621099;231;26851;-64
2022/04/21 02:58:17;;;;;;;1.87;1.77;;;7.80;93.60;;;;;;621101;231;26631;-63
2022/04/21 03:00:43;;;;;;;1.80;1.67;;;7.90;93.60;;;;;;621139;231;26642;-63
2022/04/21 03:03:10;;;;;;;2.12;1.83;;;7.90;93.50;;;;;;621159;231;26825;-63
2022/04/21 03:05:37;;;;;;;1.35;1.30;;;7.90;93.60;;;;;;621148;231;26621;-63
2022/04/21 03:08:05;;;;;;;2.05;1.65;;;7.90;93.60;;;;;;621111;231;26631;-63
2022/04/21 03:10:32;;;;;;;2.12;1.45;;;7.90;93.50;;;;;;621112;231;26623;-63
2022/04/21 03:13:00;;;;;;;1.75;1.65;;;7.80;93.60;;;;;;621117;231;26636;-63
2022/04/21 03:15:27;;;;;;;1.80;1.70;;;7.90;93.60;;;;;;621516;229;27067;-63
2022/04/21 03:17:54;;;;;;;1.40;1.30;;;7.90;93.60;;;;;;622633;231;26638;-63
2022/04/21 03:25:36;;;;;;;1.40;1.30;;;8.00;93.70;;;;;;619119;231;26647;-64
2022/04/21 03:28:04;;;;;;;1.73;1.30;;;8.00;93.70;;;;;;621763;231;26615;-63
2022/04/21 03:30:33;;;;;;;2.10;1.90;;;7.90;94.00;;;;;;621738;231;26962;-63
2022/04/21 03:33:01;;;;;;;3.20;1.92;;;7.90;93.70;;;;;;621600;231;26805;-64
2022/04/21 03:35:28;;;;;;;1.50;1.35;;;7.80;93.90;;;;;;621363;231;26533;-63
2022/04/21 03:37:56;;;;;;;1.60;1.50;;;7.80;93.90;;;;;;621347;231;26578;-63
2022/04/21 03:40:23;;;;;;;1.80;1.40;;;7.80;94.10;;;;;;621451;231;26576;-64
2022/04/21 03:42:50;;;;;;;2.87;2.12;;;7.80;94.10;;;;;;621476;231;26818;-63
2022/04/21 03:45:17;;;;;;;4.03;2.10;;;7.90;94.20;;;;;;621466;231;26557;-64
2022/04/21 03:47:44;;;;;;;1.58;1.48;;;7.80;94.10;;;;;;621395;231;27146;-63
2022/04/21 03:50:12;;;;;;;2.00;1.77;;;7.70;94.50;;;;;;621427;231;26557;-64
2022/04/21 03:52:40;;;;;;;1.35;1.25;;;7.70;94.50;;;;;;621170;231;26542;-64
2022/04/21 03:55:08;;;;;;;2.20;1.73;;;7.70;94.50;;;;;;621119;231;26627;-64
2022/04/21 03:57:35;;;;;;;4.10;1.95;;;7.80;94.60;;;;;;621067;231;26627;-64
2022/04/21 04:00:02;;;;;;;2.92;2.10;;;7.90;94.40;;;;;;621167;231;26624;-64
2022/04/21 04:02:29;;;;;;;2.60;1.85;;;7.70;94.50;;;;;;621466;231;26894;-64
2022/04/21 04:04:57;;;;;;;2.17;1.40;;;7.70;94.70;;;;;;621507;231;26595;-64
2022/04/21 04:12:30;;;;;;;2.17;1.80;;;7.70;94.70;;;;;;621499;231;26572;-66
2022/04/21 04:14:57;;;;;;;1.35;1.25;;;7.80;95.00;;;;;;621511;230;26588;-63
2022/04/21 04:17:25;;;;;;;2.00;1.70;;;7.80;94.70;;;;;;621385;231;26845;-63
2022/04/21 04:19:52;;;;;;;1.48;1.35;;;7.90;94.80;;;;;;621492;231;26589;-63
2022/04/21 04:22:19;;;;;;;1.42;1.35;;;7.80;94.70;;;;;;621479;231;26812;-64
2022/04/21 04:24:46;;;;;;;1.73;1.62;;;7.90;94.80;;;;;;621362;231;26586;-64
2022/04/21 04:27:13;;;;;;;1.73;1.62;;;7.80;94.70;;;;;;621604;229;26939;-64
2022/04/21 04:29:41;;;;;;;2.10;1.83;;;7.90;94.80;;;;;;622576;231;26571;-63
2022/04/21 04:32:08;;;;;;;1.62;1.52;;;7.90;94.80;;;;;;622147;231;26804;-64
2022/04/21 04:34:36;;;;;;;1.25;1.20;;;7.90;94.80;;;;;;621993;231;26787;-65
2022/04/21 04:37:04;;;;;;;2.75;2.00;;;7.90;95.00;;;;;;621787;231;26823;-64
2022/04/21 04:39:31;;;;;;;2.80;2.00;;;8.00;95.10;;;;;;621752;231;26581;-64
2022/04/21 04:44:31;;;;;;;2.12;1.95;;;7.90;95.20;;;;;;621714;230;26586;-64
2022/04/21 04:46:59;;;;;;;1.83;1.73;;;7.90;95.80;;;;;;621417;226;26603;-64
2022/04/21 04:49:27;;;;;;;3.22;1.48;;;7.80;95.70;;;;;;621442;231;26582;-66
2022/04/21 04:51:53;;;;;;;1.67;1.58;;;7.80;95.80;;;;;;621361;231;26636;-64
2022/04/21 04:54:21;;;;;;;6.00;1.95;;;7.80;96.00;;;;;;618635;230;26963;-64
2022/04/21 04:56:49;;;;;;;6.25;2.08;;;7.90;96.20;;;;;;615962;231;26592;-63
2022/04/21 04:59:16;;;;;;;2.20;1.60;;;7.90;96.20;;;;;;613193;233;26564;-63
2022/04/21 05:01:43;;;;;;;3.08;1.80;;;7.90;96.40;;;;;;612786;235;26573;-63
2022/04/21 05:04:10;;;;;;;2.83;1.98;;;7.90;96.20;;;;;;612600;229;27275;-64
2022/04/21 05:06:38;;;;;;;2.37;1.80;;;7.90;96.10;;;;;;612514;235;26818;-64
2022/04/21 05:09:05;;;;;;;3.15;1.92;;;8.00;96.00;;;;;;612501;233;26629;-63
2022/04/21 05:11:33;;;;;;;4.78;2.10;;;8.00;96.10;;;;;;612384;234;26835;-64
2022/04/21 05:14:01;;;;;;;4.00;1.80;;;8.10;96.00;;;;;;612405;233;26608;-65
2022/04/21 05:16:29;;;;;;;2.25;2.00;;;8.10;95.90;;;;;;612465;233;26588;-63
2022/04/21 05:18:56;;;;;;;2.28;2.08;;;8.10;95.90;;;;;;612471;233;26613;-64
2022/04/21 05:21:23;;;;;;;4.57;2.42;;;8.10;95.80;;;;;;612448;233;26820;-64
2022/04/21 05:23:50;;;;;;;3.15;1.90;;;8.10;95.80;;;;;;612356;234;26624;-64
2022/04/21 05:26:18;;;;;;;4.03;2.03;;;8.10;95.80;;;;;;611814;235;26649;-63
2022/04/21 05:28:46;;;;;;;4.70;2.15;;;8.10;95.80;;;;;;612482;235;26854;-63
2022/04/21 05:31:14;;;;;;;4.90;2.03;;;8.20;95.90;;;;;;612458;235;26584;-63
2022/04/21 05:33:41;;;;;;;4.70;2.12;;;8.10;95.80;;;;;;612428;233;26632;-63
2022/04/21 05:36:09;;;;;;;7.57;2.10;;;8.10;95.90;;;;;;612833;235;26617;-64
2022/04/21 05:38:37;;;;;;;2.45;2.15;;;8.10;96.40;;;;;;613333;232;26583;-63
2022/04/21 05:41:05;;;;;;;2.97;1.87;;;8.10;96.00;;;;;;614324;232;26524;-63
2022/04/21 05:43:38;;;;;;;5.28;2.47;;;8.10;96.00;;;;;;613945;234;26551;-63
2022/04/21 05:46:05;;;;;;;3.67;2.05;;;8.20;96.20;;;;;;613338;233;26555;-63
2022/04/21 05:48:32;;;;;;;5.78;2.50;;;8.20;96.20;;;;;;613129;234;26571;-63
2022/04/21 05:51:00;;;;;;;6.40;2.50;;;8.20;96.20;;;;;;613102;235;26907;-64
2022/04/21 05:53:28;;;;;;;5.93;2.42;;;8.20;96.20;;;;;;613092;235;26600;-65
2022/04/21 05:55:55;;;;;;;12.70;2.70;;;8.20;96.20;;;;;;613091;235;27256;-65
2022/04/21 05:58:24;;;;;;;9.48;2.58;;;8.30;96.30;;;;;;614410;231;26863;-65
2022/04/21 06:00:50;;;;;;;7.07;2.20;;;8.30;96.00;;;;;;615056;231;26567;-65
2022/04/21 06:03:17;;;;;;;10.60;2.42;;;8.40;96.10;;;;;;612790;234;26542;-65
2022/04/21 06:05:45;;;;;;;8.90;2.65;;;8.40;96.20;;;;;;612665;233;26564;-64
2022/04/21 06:08:13;;;;;;;9.45;2.97;;;8.40;96.20;;;;;;612699;228;26617;-64
2022/04/21 06:10:40;;;;;;;7.30;2.75;;;8.50;96.00;;;;;;612777;233;27108;-64
2022/04/21 06:13:08;;;;;;;7.05;2.53;;;8.50;96.00;;;;;;619015;230;26560;-64
2022/04/21 06:15:36;;;;;;;5.22;3.00;;;8.50;95.80;;;;;;615067;225;26580;-64
2022/04/21 06:18:03;;;;;;;6.60;2.85;;;8.50;95.80;;;;;;618697;231;26658;-65
2022/04/21 06:20:30;;;;;;;8.10;2.75;;;8.60;95.60;;;;;;622047;231;26623;-61
2022/04/21 06:22:57;;;;;;;9.30;2.83;;;8.60;96.00;;;;;;622448;231;26889;-62
2022/04/21 06:25:25;;;;;;;13.07;3.45;;;8.70;95.30;;;;;;621129;231;26616;-62
2022/04/21 06:27:52;;;;;;;9.63;2.55;;;8.70;95.40;;;;;;613892;231;26833;-62
2022/04/21 06:30:20;;;;;;;5.80;2.60;;;8.80;95.00;;;;;;620454;231;26617;-62
2022/04/21 06:32:47;;;;;;;6.72;2.08;;;9.00;94.80;;;;;;614224;234;26821;-62
2022/04/21 06:35:14;;;;;;;4.10;1.80;;;9.10;95.50;;;;;;614424;234;26561;-62
2022/04/21 06:37:42;;;;;;;2.85;1.90;;;9.20;94.80;;;;;;620074;231;27103;-63
2022/04/21 06:40:09;;;;;;;3.67;2.12;;;9.60;94.40;;;;;;619526;231;26577;-63
2022/04/21 06:42:37;;;;;;;9.57;2.10;;;9.70;94.10;;;;;;615616;231;26618;-63
2022/04/21 06:50:11;;;;;;;4.18;1.83;;;10.00;92.80;;;;;;625913;228;26862;-68
2022/04/21 06:52:39;;;;;;;5.18;2.00;;;10.30;92.20;;;;;;622107;229;26620;-66
2022/04/21 06:55:07;;;;;;;8.45;2.42;;;10.30;92.00;;;;;;619767;231;26611;-70
2022/04/21 06:57:34;;;;;;;2.30;1.80;;;10.20;91.90;;;;;;615346;230;26563;-66
2022/04/21 07:00:02;;;;;;;12.25;2.55;;;10.20;91.80;;;;;;615758;233;26817;-75
2022/04/21 07:02:31;;;;;;;4.95;2.37;;;10.10;92.00;;;;;;613927;233;27263;-69
2022/04/21 07:04:56;;;;;;;12.07;2.92;;;10.10;92.90;;;;;;614354;233;26610;-71
2022/04/21 07:07:23;;;;;;;5.07;2.00;;;10.20;92.30;;;;;;612475;233;26917;-71
2022/04/21 07:09:50;;;;;;;7.62;2.17;;;10.10;92.30;;;;;;615359;233;26637;-71
2022/04/21 07:12:17;;;;;;;4.10;2.30;;;9.90;92.70;;;;;;613535;233;26854;-72
2022/04/21 07:14:45;;;;;;;63.63;14.07;;;9.90;93.40;;;;;;618304;230;26586;-70
2022/04/21 07:17:12;;;;;;;1294.30;120.35;;;9.90;93.10;;;;;;615286;229;26583;-70
2022/04/21 07:19:39;;;;;;;1999.90;346.75;;;10.00;92.90;;;;;;616163;230;26584;-71
2022/04/21 07:22:06;;;;;;;1999.90;279.35;;;10.00;92.90;;;;;;621184;230;26822;-72
2022/04/21 07:24:33;;;;;;;718.70;59.50;;;10.10;93.60;;;;;;612817;235;26562;-72
2022/04/21 07:27:01;;;;;;;52.17;18.25;;;10.00;92.20;;;;;;617999;231;26590;-71
2022/04/21 07:29:30;;;;;;;36.85;12.60;;;10.10;92.60;;;;;;616574;231;26565;-70
2022/04/21 07:31:57;;;;;;;47.67;15.45;;;10.10;93.10;;;;;;615542;233;26560;-70
2022/04/21 07:34:25;;;;;;;19.85;8.25;;;10.30;93.60;;;;;;614423;234;26578;-71
2022/04/21 07:36:53;;;;;;;56.28;16.25;;;10.40;93.00;;;;;;613949;231;26613;-70
2022/04/21 07:39:21;;;;;;;56.05;14.65;;;10.40;92.80;;;;;;615329;234;26580;-71
2022/04/21 07:41:49;;;;;;;33.25;9.80;;;10.40;92.80;;;;;;615181;233;26588;-71
2022/04/21 07:44:17;;;;;;;44.17;14.93;;;10.40;93.30;;;;;;615092;234;26866;-70
2022/04/21 07:46:44;;;;;;;16.00;5.45;;;10.40;93.30;;;;;;615568;233;27337;-70
2022/04/21 07:51:46;;;;;;;31.33;11.60;;;10.50;92.10;;;;;;615569;234;26564;-70
2022/04/21 07:54:14;;;;;;;19.83;7.62;;;10.40;93.70;;;;;;615549;233;26564;-70
2022/04/21 07:56:42;;;;;;;13.43;6.55;;;10.50;93.00;;;;;;615618;233;26584;-70
2022/04/21 07:59:10;;;;;;;13.85;5.43;;;10.60;92.40;;;;;;615645;234;26578;-70
2022/04/21 08:01:38;;;;;;;26.00;9.13;;;10.50;93.00;;;;;;615939;227;26607;-70
2022/04/21 08:04:06;;;;;;;6.25;3.33;;;10.50;92.90;;;;;;617109;232;26558;-69
2022/04/21 08:06:33;;;;;;;19.65;8.63;;;10.50;92.80;;;;;;616731;233;26638;-70
2022/04/21 08:09:00;;;;;;;23.20;8.30;;;10.60;94.90;;;;;;616537;233;26567;-70
2022/04/21 08:11:27;;;;;;;17.30;6.70;;;10.60;94.20;;;;;;616393;232;26571;-71
2022/04/21 08:13:56;;;;;;;18.17;6.93;;;10.70;93.60;;;;;;614037;230;26623;-69
2022/04/21 08:16:22;;;;;;;12.25;5.07;;;10.70;92.90;;;;;;614613;231;26633;-71
2022/04/21 08:18:52;;;;;;;11.93;5.18;;;10.70;93.40;;;;;;619560;231;26631;-69
2022/04/21 08:21:18;;;;;;;10.43;4.78;;;10.70;92.70;;;;;;615742;233;26620;-70
2022/04/21 08:23:44;;;;;;;13.65;5.00;;;10.70;93.60;;;;;;620690;231;26563;-70
2022/04/21 08:34:01;;;;;;;3.55;2.95;;;11.30;94.50;;;;;;621352;231;26550;-71
2022/04/21 08:36:28;;;;;;;4.85;2.80;;;11.40;94.60;;;;;;621381;231;26818;-69
2022/04/21 08:38:56;;;;;;;3.67;2.55;;;11.50;95.00;;;;;;621180;231;26567;-70
2022/04/21 08:41:23;;;;;;;6.18;2.50;;;11.60;94.20;;;;;;621091;231;26841;-70
2022/04/21 08:43:50;;;;;;;9.20;3.58;;;11.80;94.40;;;;;;620861;231;26632;-70
2022/04/21 08:46:18;;;;;;;4.80;2.53;;;11.80;94.10;;;;;;621001;231;26914;-69
2022/04/21 08:48:45;;;;;;;3.60;2.53;;;12.00;94.40;;;;;;615694;230;26555;-70
2022/04/21 08:51:12;;;;;;;6.03;2.47;;;12.20;94.00;;;;;;614789;231;26547;-70
2022/04/21 08:53:40;;;;;;;5.00;2.65;;;12.80;93.30;;;;;;614863;231;26556;-70
2022/04/21 08:56:07;;;;;;;8.18;2.90;;;12.80;93.20;;;;;;615300;231;26585;-70
2022/04/21 08:58:35;;;;;;;12.50;3.12;;;13.00;92.10;;;;;;616865;231;26612;-70
2022/04/21 09:01:03;;;;;;;9.43;2.90;;;12.90;92.40;;;;;;616503;231;26560;-70
2022/04/21 09:03:33;;;;;;;4.25;2.50;;;12.60;92.20;;;;;;615799;231;26552;-70
2022/04/21 09:06:00;;;;;;;5.95;2.78;;;12.60;93.10;;;;;;614889;231;26561;-70
2022/04/21 09:08:27;;;;;;;12.13;3.22;;;12.60;93.00;;;;;;615666;231;26581;-70
2022/04/21 09:11:01;;;;;;;4.57;2.22;;;13.10;91.70;;;;;;619649;230;26604;-70
2022/04/21 09:13:34;;;;;;;6.35;3.08;;;13.50;91.60;;;;;;618232;228;26565;-70
2022/04/21 09:16:01;;;;;;;4.72;2.42;;;13.40;91.50;;;;;;618186;230;26909;-72
2022/04/21 09:18:44;;;;;;;7.85;2.78;;;13.50;90.70;;;;;;613522;232;26550;-70
2022/04/21 09:21:14;;;;;;;5.37;2.92;;;13.70;91.00;;;;;;620832;231;26555;-70
2022/04/21 09:23:40;;;;;;;7.55;2.85;;;13.60;91.40;;;;;;621717;231;26662;-70
2022/04/21 09:26:09;;;;;;;6.95;3.22;;;13.60;91.40;;;;;;621674;230;26860;-70
2022/04/21 09:28:37;;;;;;;7.97;3.08;;;13.70;90.80;;;;;;621762;230;26648;-69
2022/04/21 09:31:05;;;;;;;5.35;2.55;;;13.30;91.20;;;;;;620076;230;26643;-70
2022/04/21 09:33:32;;;;;;;2.37;2.17;;;13.30;91.30;;;;;;612702;234;26607;-70
2022/04/21 09:35:59;;;;;;;2.60;2.22;;;13.40;90.50;;;;;;613055;234;26552;-71
2022/04/21 09:38:26;;;;;;;6.15;2.45;;;13.50;90.40;;;;;;613153;233;26794;-71
2022/04/21 09:40:53;;;;;;;4.72;2.60;;;13.60;91.20;;;;;;613124;233;26540;-71
2022/04/21 09:43:27;;;;;;;4.95;2.42;;;13.70;90.80;;;;;;612913;233;26801;-71
2022/04/21 09:48:30;;;;;;;3.87;2.40;;;13.70;91.20;;;;;;612737;233;26564;-70
2022/04/21 09:51:08;;;;;;;5.25;2.58;;;13.80;90.30;;;;;;612463;233;27129;-70
2022/04/21 09:53:45;;;;;;;3.97;2.30;;;13.70;90.20;;;;;;612476;235;26624;-70
2022/04/21 09:56:12;;;;;;;3.30;2.60;;;13.80;90.60;;;;;;612277;235;26631;-70
2022/04/21 09:58:39;;;;;;;3.80;2.80;;;13.80;90.40;;;;;;612374;235;27342;-68
2022/04/21 10:01:06;;;;;;;2.50;2.05;;;14.00;90.70;;;;;;615257;231;26616;-70
2022/04/21 10:03:33;;;;;;;4.68;2.33;;;14.10;90.30;;;;;;615482;231;26869;-70
2022/04/21 10:06:01;;;;;;;3.28;2.70;;;14.10;89.00;;;;;;613900;234;26592;-70
2022/04/21 10:08:29;;;;;;;4.57;2.55;;;14.20;88.00;;;;;;621761;228;26864;-70
2022/04/21 10:10:56;;;;;;;5.28;2.60;;;14.20;90.00;;;;;;614753;225;26589;-69
2022/04/21 10:13:24;;;;;;;5.82;2.83;;;14.00;88.30;;;;;;615186;233;26604;-76
2022/04/21 10:15:52;;;;;;;3.03;2.58;;;13.50;90.20;;;;;;615535;233;26557;-71
2022/04/21 10:18:20;;;;;;;11.98;3.12;;;13.40;90.60;;;;;;615702;228;26599;-71
2022/04/21 10:20:48;;;;;;;4.00;2.87;;;13.10;90.80;;;;;;615714;233;26546;-71
2022/04/21 10:23:16;;;;;;;4.05;3.03;;;12.90;90.90;;;;;;615273;232;26566;-70
2022/04/21 10:25:43;;;;;;;3.10;2.80;;;12.90;90.80;;;;;;616658;231;26650;-70
2022/04/21 10:28:22;;;;;;;7.68;3.53;;;12.70;90.80;;;;;;616969;232;26582;-71
2022/04/21 10:30:50;;;;;;;3.12;2.78;;;12.60;91.00;;;;;;616575;232;26847;-71
2022/04/21 10:33:17;;;;;;;4.75;3.33;;;12.70;91.40;;;;;;616551;232;26549;-71
2022/04/21 10:35:46;;;;;;;4.78;3.30;;;12.70;91.60;;;;;;616228;233;26849;-70
2022/04/21 10:38:21;;;;;;;3.25;2.62;;;12.80;91.30;;;;;;616234;232;26637;-70
2022/04/21 10:40:54;;;;;;;4.65;3.20;;;12.90;90.80;;;;;;616145;233;26853;-70
2022/04/21 10:43:22;;;;;;;3.30;2.90;;;13.10;91.10;;;;;;616085;232;26608;-70
2022/04/21 10:46:04;;;;;;;30.02;11.23;;;13.10;90.80;;;;;;615911;232;26592;-71
2022/04/21 10:48:40;;;;;;;21.77;7.68;;;13.10;90.70;;;;;;615726;232;26624;-70
2022/04/21 10:51:08;;;;;;;13.20;5.32;;;13.30;90.50;;;;;;615889;232;26598;-69
2022/04/21 10:59:01;;;;;;;48.13;16.37;;;13.50;91.20;;;;;;615928;232;26608;-71
2022/04/21 11:01:31;;;;;;;57.60;19.92;;;13.70;90.00;;;;;;615484;228;26826;-71
2022/04/21 11:04:04;;;;;;;33.72;11.90;;;14.00;88.60;;;;;;615454;234;26557;-72
2022/04/21 11:06:40;;;;;;;35.97;13.10;;;14.40;88.30;;;;;;614843;230;26608;-72
2022/04/21 11:09:07;;;;;;;36.85;13.15;;;14.60;88.80;;;;;;612714;231;26589;-71
2022/04/21 11:11:43;;;;;;;33.17;11.90;;;14.60;89.50;;;;;;612857;233;26588;-72
2022/04/21 11:14:11;;;;;;;27.77;10.18;;;14.90;88.20;;;;;;612595;235;26576;-72
2022/04/21 11:16:48;;;;;;;24.42;10.95;;;15.10;87.80;;;;;;612403;235;26874;-71
2022/04/21 11:19:40;;;;;;;30.95;11.77;;;15.20;86.90;;;;;;617558;231;26616;-71
2022/04/21 11:22:07;;;;;;;22.98;10.27;;;15.20;86.50;;;;;;619106;231;26851;-73
2022/04/21 11:24:46;;;;;;;29.65;11.00;;;15.10;87.10;;;;;;612647;231;26607;-71
2022/04/21 11:27:13;;;;;;;23.60;9.10;;;15.00;87.10;;;;;;613665;231;26653;-71
2022/04/21 11:29:40;;;;;;;22.60;9.27;;;15.40;85.00;;;;;;615773;231;26827;-71
2022/04/21 11:32:09;;;;;;;22.62;9.20;;;15.40;84.80;;;;;;617700;231;26632;-71
2022/04/21 11:34:37;;;;;;;21.70;9.40;;;15.60;87.10;;;;;;618669;229;26605;-72
2022/04/21 11:37:06;;;;;;;24.35;9.07;;;15.60;84.40;;;;;;615893;230;26619;-73
2022/04/21 11:39:33;;;;;;;18.12;5.97;;;15.60;84.40;;;;;;604570;231;26654;-72
2022/04/21 11:42:00;;;;;;;20.83;9.02;;;15.40;84.60;;;;;;614420;233;26547;-72
2022/04/21 11:44:27;;;;;;;19.50;7.57;;;15.30;84.50;;;;;;617642;231;26538;-72
2022/04/21 11:46:54;;;;;;;16.58;8.02;;;15.10;85.00;;;;;;616674;231;26612;-72
2022/04/21 11:49:21;;;;;;;16.50;7.53;;;14.80;85.20;;;;;;614678;232;26591;-72
2022/04/21 11:51:52;;;;;;;13.55;7.05;;;14.50;87.10;;;;;;616226;231;26572;-72
2022/04/21 11:54:20;;;;;;;20.12;7.65;;;14.40;86.40;;;;;;614723;230;26817;-72
2022/04/21 11:56:50;;;;;;;17.12;7.50;;;14.30;88.60;;;;;;612752;235;26587;-73
2022/04/21 11:59:17;;;;;;;17.60;7.45;;;14.10;90.10;;;;;;612718;233;26585;-73
2022/04/21 12:06:51;;;;;;;9.10;4.82;;;14.10;88.60;;;;;;612867;231;26605;-71
2022/04/21 12:09:19;;;;;;;14.75;5.28;;;14.40;89.70;;;;;;614968;231;26626;-71
2022/04/21 12:11:48;;;;;;;14.00;5.85;;;14.60;88.70;;;;;;616370;230;26799;-71
2022/04/21 12:14:15;;;;;;;12.63;5.80;;;14.80;88.00;;;;;;618256;229;26615;-72
2022/04/21 12:16:42;;;;;;;13.95;5.40;;;14.80;88.80;;;;;;618668;231;26814;-72
2022/04/21 12:19:10;;;;;;;11.80;5.65;;;14.90;88.40;;;;;;621075;231;26618;-71
2022/04/21 12:21:38;;;;;;;10.27;4.47;;;14.70;87.00;;;;;;616819;231;26654;-71
2022/04/21 12:24:12;;;;;;;10.80;5.40;;;14.60;87.50;;;;;;616520;231;26559;-71
2022/04/21 12:26:40;;;;;;;12.55;4.72;;;14.50;88.80;;;;;;616977;231;26626;-71
2022/04/21 12:29:07;;;;;;;7.50;4.68;;;14.30;89.80;;;;;;616829;231;26531;-71
2022/04/21 12:31:44;;;;;;;7.28;3.90;;;14.10;90.00;;;;;;615871;231;26564;-71
2022/04/21 12:34:12;;;;;;;9.50;5.10;;;14.10;90.00;;;;;;619695;227;26591;-71
2022/04/21 12:36:39;;;;;;;8.32;3.97;;;13.90;90.40;;;;;;621481;231;26591;-71
2022/04/21 12:39:06;;;;;;;5.97;3.90;;;13.70;90.40;;;;;;619820;231;26835;-71
2022/04/21 12:41:35;;;;;;;7.15;4.00;;;13.70;91.10;;;;;;621077;231;26631;-71
2022/04/21 12:44:01;;;;;;;5.00;4.00;;;13.60;90.50;;;;;;620972;231;26839;-71
2022/04/21 12:46:28;;;;;;;5.05;3.67;;;13.60;91.00;;;;;;621159;231;26592;-71
2022/04/21 12:48:56;;;;;;;5.15;3.50;;;13.50;91.60;;;;;;622085;229;26629;-70
2022/04/21 12:51:25;;;;;;;6.18;3.35;;;13.50;91.40;;;;;;622381;231;26609;-69
2022/04/21 12:53:56;;;;;;;8.18;3.45;;;13.70;91.10;;;;;;621976;231;26565;-70
2022/04/21 12:56:22;;;;;;;6.05;3.20;;;13.60;91.10;;;;;;621714;227;27258;-71
2022/04/21 12:58:55;;;;;;;3.83;3.08;;;13.70;90.90;;;;;;620385;231;26591;-69
2022/04/21 13:01:22;;;;;;;4.40;3.17;;;13.80;91.20;;;;;;619086;227;26622;-71
2022/04/21 13:03:50;;;;;;;4.47;3.05;;;13.90;91.20;;;;;;618275;230;26633;-70
2022/04/21 13:06:24;;;;;;;4.18;3.20;;;13.90;90.90;;;;;;613743;230;26650;-70
2022/04/21 13:08:52;;;;;;;5.45;2.97;;;13.90;90.90;;;;;;614662;231;26570;-71
2022/04/21 13:11:19;;;;;;;5.90;3.40;;;13.80;90.90;;;;;;619340;230;26657;-71
2022/04/21 13:13:47;;;;;;;4.43;3.08;;;13.90;90.70;;;;;;616888;230;26570;-70
2022/04/21 13:16:14;;;;;;;5.00;2.90;;;13.80;91.00;;;;;;614397;231;26801;-71
2022/04/21 13:18:41;;;;;;;4.25;3.08;;;13.80;90.40;;;;;;614133;233;26569;-70
2022/04/21 13:23:42;;;;;;;7.32;4.22;;;13.80;90.70;;;;;;612738;233;26560;-71
2022/04/21 13:26:10;;;;;;;12.65;8.75;;;13.80;90.50;;;;;;612433;235;26609;-71
2022/04/21 13:28:38;;;;;;;36.75;32.88;;;13.80;90.90;;;;;;614306;231;26570;-71
2022/04/21 13:33:38;;;;;;;183.23;136.25;;;13.80;91.30;;;;;;614520;231;26590;-71
2022/04/21 13:36:06;;;;;;;276.62;207.82;;;13.90;90.60;;;;;;614153;234;26845;-70
2022/04/21 13:38:33;;;;;;;402.52;321.65;;;13.90;91.50;;;;;;614477;231;26782;-70
2022/04/21 13:41:01;;;;;;;362.77;270.63;;;13.90;91.30;;;;;;615541;234;26570;-70
2022/04/21 13:43:28;;;;;;;367.40;276.30;;;13.80;91.20;;;;;;615656;234;26541;-70
2022/04/21 13:45:56;;;;;;;339.02;247.10;;;13.80;92.10;;;;;;615614;233;27253;-70
2022/04/21 13:48:22;;;;;;;410.87;312.00;;;13.80;92.10;;;;;;615378;234;26592;-70
2022/04/21 13:50:50;;;;;;;383.55;309.60;;;13.60;92.30;;;;;;615446;231;26576;-69